Time;durP1;ratioP1;P1;durP2;ratioP2;P2;SDS_P1;SDS_P2;PMS_P1;PMS_P2;Temp;Humidity;BMP_temperature;BMP_pressure;BME280_temperature;BME280_humidity;BME280_pressure;Samples;Min_cycle;Max_cycle;Signal;HPM_P1;HPM_P2
2024/04/07 00:01:31;;;;;;;2.10;1.30;;;;;;;18.21;45.10;99695.22;10206609;29;20095;-78
2024/04/07 00:06:33;;;;;;;4.38;1.40;;;;;;;18.13;44.85;99688.88;10215976;29;20070;-78
2024/04/07 00:11:33;;;;;;;2.13;1.20;;;;;;;;;;10219811;29;20570;-79
2024/04/07 00:16:34;;;;;;;5.60;2.00;;;;;;;18.14;44.75;99687.00;10212366;29;20031;-77
2024/04/07 00:21:35;;;;;;;2.65;1.20;;;;;;;18.08;45.09;99688.63;10203512;29;20055;-79
2024/04/07 00:26:36;;;;;;;4.03;1.95;;;;;;;17.97;45.18;99683.66;10203388;29;20048;-78
2024/04/07 00:31:36;;;;;;;2.05;1.65;;;;;;;17.96;45.44;99687.38;10191372;29;20051;-78
2024/04/07 00:36:37;;;;;;;5.03;1.83;;;;;;;17.88;45.43;99685.63;10207281;29;20410;-79
2024/04/07 00:41:38;;;;;;;4.88;1.58;;;;;;;17.88;45.37;99676.59;10223498;29;20028;-80
2024/04/07 00:46:41;;;;;;;3.28;2.03;;;;;;;17.88;45.62;99676.59;10236197;29;20075;-79
2024/04/07 00:51:43;;;;;;;3.17;1.50;;;;;;;17.81;45.46;99679.25;10208548;28;20391;-79
2024/04/07 00:56:44;;;;;;;3.17;1.67;;;;;;;17.83;45.43;99693.50;10236631;28;20042;-79
2024/04/07 01:01:45;;;;;;;4.90;1.65;;;;;;;17.82;45.12;99683.63;10204067;29;20044;-79
2024/04/07 01:06:46;;;;;;;1.58;1.25;;;;;;;17.76;45.48;99678.13;10215720;28;20052;-79
2024/04/07 01:11:46;;;;;;;1.65;1.45;;;;;;;17.80;45.47;99690.28;10222041;29;20063;-79
2024/04/07 01:16:47;;;;;;;3.53;1.80;;;;;;;17.72;45.18;99693.97;10215194;29;20058;-78
2024/04/07 01:21:48;;;;;;;5.72;1.67;;;;;;;17.78;45.07;99703.22;10253430;28;20379;-79
2024/04/07 01:26:49;;;;;;;2.05;1.70;;;;;;;17.71;45.38;99697.69;10225678;28;20028;-79
2024/04/07 01:31:49;;;;;;;2.85;1.80;;;;;;;17.64;45.24;99696.78;10223358;28;20511;-78
2024/04/07 01:36:50;;;;;;;1.83;1.58;;;;;;;17.62;45.40;99693.41;10218663;28;20059;-79
2024/04/07 01:41:51;;;;;;;3.47;1.42;;;;;;;17.57;45.24;99702.09;10230221;29;20048;-78
2024/04/07 01:46:52;;;;;;;1.92;1.50;;;;;;;17.53;45.70;99708.94;10226505;29;20142;-78
2024/04/07 01:51:52;;;;;;;4.10;1.83;;;;;;;17.48;45.27;99703.22;10213123;28;20130;-78
2024/04/07 01:56:53;;;;;;;3.58;1.48;;;;;;;17.58;44.52;99711.06;10212779;29;20047;-79
2024/04/07 02:01:54;;;;;;;2.88;1.55;;;;;;;17.81;43.06;99717.28;10210056;28;20051;-78
2024/04/07 02:06:55;;;;;;;6.43;1.40;;;;;;;18.02;42.33;99726.56;10227717;29;20047;-79
2024/04/07 02:11:57;;;;;;;3.92;1.27;;;;;;;18.27;41.69;99729.81;10214441;29;20767;-77
2024/04/07 02:16:58;;;;;;;4.63;1.58;;;;;;;18.45;40.66;99740.25;10235031;28;20487;-79
2024/04/07 02:21:58;;;;;;;3.38;1.40;;;;;;;18.62;40.37;99738.16;10221615;29;20078;-78
2024/04/07 02:26:59;;;;;;;3.53;1.30;;;;;;;18.74;40.12;99744.78;10204486;29;20086;-79
2024/04/07 02:32:01;;;;;;;6.85;1.65;;;;;;;18.94;39.66;99747.72;10217857;29;20043;-78
2024/04/07 02:37:02;;;;;;;4.30;1.83;;;;;;;19.16;38.38;99754.84;10220937;28;20433;-77
2024/04/07 02:42:03;;;;;;;3.95;0.98;;;;;;;19.49;37.81;99751.56;10227388;29;20135;-79
2024/04/07 02:52:23;;;;;;;3.17;1.50;;;;;;;19.84;37.35;99765.25;10230695;29;20248;-78
2024/04/07 02:57:24;;;;;;;3.28;1.05;;;;;;;19.81;37.50;99762.94;10217124;29;20074;-80
2024/04/07 03:02:24;;;;;;;3.90;1.42;;;;;;;19.46;37.92;99782.75;10216718;29;20101;-78
2024/04/07 03:07:25;;;;;;;2.97;1.30;;;;;;;19.76;37.87;99774.41;10208998;28;20047;-78
2024/04/07 03:12:27;;;;;;;4.65;1.90;;;;;;;19.76;38.11;99784.47;10226274;28;20493;-78
2024/04/07 03:17:28;;;;;;;;;;;;;;;19.64;38.40;99795.09;10222548;28;20418;-79
2024/04/07 03:22:30;;;;;;;5.30;1.48;;;;;;;19.44;38.88;99812.09;10212101;29;19929;-79
2024/04/07 03:27:30;;;;;;;5.70;1.53;;;;;;;19.38;38.96;99821.00;10220497;28;20032;-79
2024/04/07 03:32:31;;;;;;;4.15;1.45;;;;;;;19.37;38.88;99841.13;10240553;28;20039;-79
2024/04/07 03:37:32;;;;;;;7.88;1.30;;;;;;;19.15;39.59;99848.44;10218003;29;20042;-79
2024/04/07 03:42:32;;;;;;;3.92;1.40;;;;;;;19.06;39.82;99870.53;10212466;29;20051;-80
2024/04/07 03:47:33;;;;;;;8.13;2.22;;;;;;;18.93;40.13;99880.22;10208273;28;20047;-78
2024/04/07 03:52:34;;;;;;;5.85;1.25;;;;;;;18.63;41.01;99901.16;10199623;29;20067;-79
2024/04/07 03:57:35;;;;;;;6.63;1.48;;;;;;;18.69;41.26;99910.44;10211837;29;20134;-78
2024/04/07 04:02:36;;;;;;;6.85;1.85;;;;;;;18.65;41.83;99923.59;10205580;29;20130;-78
2024/04/07 04:07:36;;;;;;;4.32;1.38;;;;;;;18.24;43.02;99940.34;10225178;28;20035;-79
2024/04/07 04:12:37;;;;;;;4.50;1.60;;;;;;;18.17;43.65;99946.72;10227690;29;20491;-79
2024/04/07 04:17:38;;;;;;;7.95;2.30;;;;;;;17.80;45.68;99967.34;10209782;28;20051;-79
2024/04/07 04:22:42;;;;;;;6.43;1.40;;;;;;;17.85;45.62;100003.84;10219887;29;20040;-79
2024/04/07 04:27:43;;;;;;;6.88;1.80;;;;;;;18.24;45.75;100015.59;10201631;28;20043;-78
2024/04/07 04:32:46;;;;;;;6.53;1.70;;;;;;;17.66;47.49;100034.16;10224914;28;20044;-78
2024/04/07 04:37:47;;;;;;;7.97;2.15;;;;;;;17.75;48.18;100035.81;10200809;28;20107;-79
2024/04/07 04:42:48;;;;;;;10.30;1.77;;;;;;;17.50;49.90;100065.00;10218175;29;20047;-79
2024/04/07 04:47:49;;;;;;;6.13;1.98;;;;;;;17.27;51.34;100077.66;10209717;28;20668;-79
2024/04/07 04:52:50;;;;;;;9.05;3.47;;;;;;;17.17;52.18;100102.28;10205147;28;20035;-79
2024/04/07 04:57:51;;;;;;;4.13;1.67;;;;;;;17.17;53.14;100143.84;10204518;28;20055;-80
2024/04/07 05:02:51;;;;;;;7.20;2.72;;;;;;;16.94;53.99;100130.09;10193827;29;20467;-79
2024/04/07 05:07:52;;;;;;;6.72;2.22;;;;;;;16.81;55.50;100127.94;10209342;29;20053;-80
2024/04/07 05:12:53;;;;;;;7.03;2.15;;;;;;;16.75;56.15;100138.59;10213726;28;20060;-78
2024/04/07 05:17:54;;;;;;;8.43;1.88;;;;;;;16.63;56.84;100156.25;10214821;28;20047;-79
2024/04/07 05:22:54;;;;;;;6.70;1.77;;;;;;;16.59;57.43;100156.59;10210921;29;20063;-79
2024/04/07 05:27:55;;;;;;;4.88;0.85;;;;;;;16.06;57.87;100155.13;10196704;29;20393;-80
2024/04/07 05:32:56;;;;;;;7.63;2.72;;;;;;;16.66;56.42;100123.38;10197202;29;20549;-79
2024/04/07 05:37:57;;;;;;;5.28;1.30;;;;;;;16.25;58.76;100145.84;10223775;28;20190;-80
2024/04/07 05:42:58;;;;;;;6.25;1.75;;;;;;;15.93;59.24;100179.13;10240377;28;20209;-79
2024/04/07 05:47:59;;;;;;;3.60;1.42;;;;;;;16.25;58.37;100191.91;10215751;29;20090;-78
2024/04/07 05:53:00;;;;;;;3.47;1.30;;;;;;;16.28;58.80;100202.44;10201777;29;20459;-78
2024/04/07 05:58:01;;;;;;;6.28;1.50;;;;;;;16.51;57.74;100197.25;10218644;29;20047;-79
2024/04/07 06:03:02;;;;;;;4.13;1.30;;;;;;;16.93;56.36;100193.53;10212039;29;20072;-79
2024/04/07 06:08:09;;;;;;;3.50;1.00;;;;;;;16.58;56.23;100219.94;10221703;29;20120;-80
2024/04/07 06:13:10;;;;;;;4.68;1.00;;;;;;;17.06;56.03;100208.44;10211991;29;20056;-78
2024/04/07 06:18:11;;;;;;;3.28;1.00;;;;;;;17.03;55.78;100224.06;10224272;28;20055;-79
2024/04/07 06:23:11;;;;;;;2.97;1.00;;;;;;;16.76;55.49;100221.69;10215969;29;20052;-79
2024/04/07 06:28:13;;;;;;;3.88;1.00;;;;;;;17.47;53.90;100226.41;10224295;28;20046;-79
2024/04/07 06:33:14;;;;;;;3.10;1.05;;;;;;;17.39;53.81;100223.69;10213651;28;20427;-78
2024/04/07 06:38:14;;;;;;;4.80;0.77;;;;;;;17.28;53.47;100223.19;10212619;28;20052;-78
2024/04/07 06:43:15;;;;;;;2.60;1.00;;;;;;;17.21;52.63;100234.75;10203530;28;20059;-79
2024/04/07 06:48:16;;;;;;;3.28;0.65;;;;;;;17.52;52.27;100220.44;10228471;28;20044;-78
2024/04/07 06:53:17;;;;;;;4.95;1.13;;;;;;;17.55;52.16;100205.66;10223055;28;20043;-78
2024/04/07 06:58:18;;;;;;;5.13;1.42;;;;;;;17.50;52.93;100192.63;10215120;29;20082;-79
2024/04/07 07:03:18;;;;;;;2.88;1.20;;;;;;;17.66;52.97;100173.56;10214707;29;20050;-79
2024/04/07 07:08:19;;;;;;;1.42;0.70;;;;;;;17.75;52.94;100195.25;10217096;28;20446;-79
2024/04/07 07:13:20;;;;;;;2.63;1.20;;;;;;;17.76;53.42;100199.66;10207052;28;20043;-79
2024/04/07 07:18:21;;;;;;;6.68;1.38;;;;;;;18.09;52.55;100203.94;10222517;28;20052;-80
2024/04/07 07:23:22;;;;;;;4.60;1.63;;;;;;;17.70;53.88;100207.47;10199953;28;20047;-78
2024/04/07 07:28:23;;;;;;;4.88;1.20;;;;;;;17.71;53.97;100202.88;10201683;28;20040;-78
2024/04/07 07:33:24;;;;;;;6.35;1.30;;;;;;;17.66;55.67;100214.31;10221871;28;20047;-79
2024/04/07 07:38:24;;;;;;;2.92;1.52;;;;;;;17.48;54.99;100238.09;10214262;28;20066;-79
2024/04/07 07:43:25;;;;;;;6.57;1.92;;;;;;;17.81;54.64;100232.56;10223809;29;20130;-77
2024/04/07 07:48:26;;;;;;;8.73;1.65;;;;;;;17.61;55.10;100232.97;10234676;28;20035;-79
2024/04/07 07:53:31;;;;;;;9.35;1.38;;;;;;;18.08;53.32;100229.44;10249070;29;20047;-79
2024/04/07 07:58:34;;;;;;;4.78;1.80;;;;;;;18.16;54.07;100250.31;10208240;28;20601;-78
2024/04/07 08:03:35;;;;;;;7.18;1.95;;;;;;;18.28;53.58;100243.44;10226788;29;20075;-80
2024/04/07 08:08:36;;;;;;;8.50;2.30;;;;;;;18.77;52.41;100259.44;10221656;28;20478;-79
2024/04/07 08:13:37;;;;;;;4.65;2.42;;;;;;;19.01;52.06;100269.34;10199033;29;20054;-80
2024/04/07 08:18:38;;;;;;;5.50;2.38;;;;;;;18.67;52.91;100277.88;10224168;28;20054;-78
2024/04/07 08:23:39;;;;;;;6.43;2.00;;;;;;;19.14;50.98;100262.41;10218735;29;20039;-79
2024/04/07 08:28:40;;;;;;;5.07;1.58;;;;;;;19.26;49.51;100279.19;10220582;28;20039;-79
2024/04/07 08:33:41;;;;;;;6.35;1.90;;;;;;;19.53;50.67;100281.31;10218896;29;20526;-78
2024/04/07 08:38:42;;;;;;;6.45;2.15;;;;;;;19.31;52.37;100274.88;10221243;28;20076;-78
2024/04/07 08:43:47;;;;;;;4.32;1.60;;;;;;;18.53;54.04;100300.41;10225415;29;20042;-77
2024/04/07 08:48:52;;;;;;;5.80;1.38;;;;;;;18.13;52.12;100299.59;10239133;28;20051;-78
2024/04/07 08:53:57;;;;;;;1.17;0.88;;;;;;;17.55;52.67;100307.00;10221484;29;20474;-78
2024/04/07 08:59:00;;;;;;;4.70;1.30;;;;;;;17.73;52.53;100316.81;10219196;29;20086;-79
2024/04/07 09:04:00;;;;;;;;;;;;;;;17.94;51.75;100303.53;10202901;28;20066;-78
2024/04/07 09:09:01;;;;;;;6.70;1.63;;;;;;;18.29;51.07;100304.97;10223958;29;19933;-78
2024/04/07 09:14:02;;;;;;;7.72;1.10;;;;;;;18.19;51.00;100307.03;10216557;29;20054;-79
2024/04/07 09:19:06;;;;;;;3.97;0.93;;;;;;;17.69;50.99;100302.75;10227257;28;20056;-78
2024/04/07 09:24:09;;;;;;;3.08;0.85;;;;;;;18.20;50.00;100300.56;10208661;29;20051;-79
2024/04/07 09:29:10;;;;;;;4.13;1.10;;;;;;;19.23;48.43;100300.28;10207628;29;20055;-77
2024/04/07 09:34:11;;;;;;;2.53;1.08;;;;;;;19.42;47.27;100318.00;10220084;28;20499;-79
2024/04/07 09:39:13;;;;;;;2.63;0.90;;;;;;;19.33;46.27;100318.25;10239182;29;20047;-78
2024/04/07 09:44:19;;;;;;;5.25;1.08;;;;;;;19.35;46.50;100305.31;10235088;29;20570;-79
2024/04/07 09:49:21;;;;;;;3.05;1.30;;;;;;;20.01;47.08;100305.50;10211388;28;20043;-79
2024/04/07 09:54:37;;;;;;;5.25;1.08;;;;;;;20.10;47.42;100304.38;10233244;28;20518;-78
2024/04/07 09:59:39;;;;;;;4.35;1.00;;;;;;;19.24;45.94;100298.41;10216153;29;20808;-77
2024/04/07 10:04:41;;;;;;;4.20;1.17;;;;;;;19.61;45.65;100316.66;10258846;28;20036;-79
2024/04/07 10:09:43;;;;;;;3.10;0.90;;;;;;;19.97;44.66;100298.75;10234940;29;20643;-80
2024/04/07 10:14:44;;;;;;;3.65;0.88;;;;;;;20.62;43.76;100295.19;10236720;28;20043;-79
2024/04/07 10:19:46;;;;;;;3.03;1.10;;;;;;;19.99;44.98;100289.31;10235393;28;20039;-80
2024/04/07 10:24:48;;;;;;;;;;;;;;;20.18;43.96;100278.88;10235171;29;20043;-80
2024/04/07 10:29:56;;;;;;;3.78;0.70;;;;;;;20.35;44.45;100274.97;10214963;28;19926;-80
2024/04/07 10:35:04;;;;;;;3.08;0.70;;;;;;;21.86;41.01;100282.06;10229656;28;20173;-80
2024/04/07 10:40:09;;;;;;;10.43;1.50;;;;;;;22.28;42.15;100284.81;10215619;28;20050;-80
2024/04/07 10:45:12;;;;;;;5.35;0.98;;;;;;;21.30;42.12;100292.97;10241728;28;20035;-79
2024/04/07 10:50:12;;;;;;;4.63;1.20;;;;;;;20.63;42.38;100294.19;10215865;28;20051;-79
2024/04/07 10:55:13;;;;;;;1.75;0.70;;;;;;;21.57;42.36;100266.69;10234376;29;20499;-78
2024/04/07 11:00:15;;;;;;;2.53;0.70;;;;;;;22.26;41.02;100265.00;10219722;28;20070;-77
2024/04/07 11:05:16;;;;;;;1.58;0.80;;;;;;;22.55;40.08;100274.84;10221707;29;20043;-80
2024/04/07 11:10:17;;;;;;;1.58;0.68;;;;;;;22.63;40.00;100269.19;10219164;28;20214;-79
2024/04/07 11:15:20;;;;;;;3.03;0.80;;;;;;;23.29;39.26;100256.66;10234386;29;20052;-79
2024/04/07 11:20:22;;;;;;;3.95;1.15;;;;;;;23.41;37.09;100250.31;10229153;28;20411;-79
2024/04/07 11:25:23;;;;;;;5.28;0.68;;;;;;;22.06;38.61;100267.66;10226970;29;20063;-79
2024/04/07 11:30:35;;;;;;;1.83;0.68;;;;;;;21.62;38.59;100255.19;10230937;29;20562;-79
2024/04/07 11:35:39;;;;;;;6.88;0.88;;;;;;;21.73;39.64;100265.56;10199621;29;20062;-79
2024/04/07 11:40:40;;;;;;;2.75;0.73;;;;;;;21.82;39.12;100264.38;10217853;28;20038;-78
2024/04/07 11:45:41;;;;;;;2.13;0.80;;;;;;;23.07;38.35;100262.31;10233790;28;20054;-79
2024/04/07 11:50:42;;;;;;;1.75;0.63;;;;;;;23.46;36.74;100290.78;10224594;29;20043;-80
2024/04/07 11:55:43;;;;;;;2.38;0.63;;;;;;;22.83;38.10;100284.81;10223032;29;20075;-80
2024/04/07 12:00:43;;;;;;;3.92;0.70;;;;;;;22.00;37.05;100317.72;10210957;29;20055;-78
2024/04/07 12:05:44;;;;;;;2.25;0.55;;;;;;;21.69;37.34;100302.50;10214791;28;20038;-78
2024/04/07 12:10:45;;;;;;;2.95;1.00;;;;;;;22.29;37.25;100279.13;10225128;29;20044;-78
2024/04/07 12:15:46;;;;;;;1.52;0.68;;;;;;;23.21;35.84;100264.03;10227740;28;20054;-80
2024/04/07 12:20:47;;;;;;;1.48;0.82;;;;;;;22.67;36.25;100286.03;10214790;29;20061;-79
2024/04/07 12:25:47;;;;;;;3.78;0.70;;;;;;;22.44;36.63;100292.69;10209653;28;20043;-80
2024/04/07 12:30:50;;;;;;;1.38;0.57;;;;;;;23.46;35.15;100287.22;10214779;29;20040;-80
2024/04/07 12:35:53;;;;;;;3.60;0.70;;;;;;;22.63;36.29;100254.66;10239306;28;20039;-78
2024/04/07 12:40:55;;;;;;;3.35;0.60;;;;;;;23.16;34.83;100261.06;10237007;28;20075;-80
2024/04/07 12:45:55;;;;;;;;;;;;;;;23.76;34.24;100255.56;10233233;28;20055;-79
2024/04/07 12:50:57;;;;;;;0.93;0.57;;;;;;;23.10;35.51;100242.72;10243564;29;20062;-79
2024/04/07 12:55:58;;;;;;;3.05;0.70;;;;;;;21.74;35.59;100250.00;10248683;28;20522;-80
2024/04/07 13:01:00;;;;;;;2.00;0.57;;;;;;;21.70;38.18;100249.56;10247817;28;20055;-78
2024/04/07 13:06:05;;;;;;;1.42;0.90;;;;;;;22.17;37.30;100247.09;10227043;29;20044;-79
2024/04/07 13:11:05;;;;;;;3.08;1.00;;;;;;;24.84;35.14;100227.41;10228227;29;20055;-78
2024/04/07 13:16:07;;;;;;;2.17;0.90;;;;;;;25.09;32.61;100230.22;10247132;28;20881;-80
2024/04/07 13:21:08;;;;;;;5.43;0.80;;;;;;;25.72;31.67;100225.63;10240965;28;20106;-81
2024/04/07 13:26:09;;;;;;;1.70;0.90;;;;;;;24.92;34.52;100238.13;10241297;28;20093;-81
2024/04/07 13:31:09;;;;;;;3.75;0.80;;;;;;;23.52;34.84;100246.06;10235875;28;20586;-78
2024/04/07 13:36:10;;;;;;;2.53;0.63;;;;;;;23.28;34.65;100225.66;10239348;28;20039;-80
2024/04/07 13:41:11;;;;;;;3.90;0.75;;;;;;;22.89;35.19;100223.72;10231213;29;20058;-79
2024/04/07 13:46:12;;;;;;;2.25;0.50;;;;;;;23.08;35.14;100224.78;10224681;29;20052;-79
2024/04/07 13:51:13;;;;;;;1.38;0.80;;;;;;;23.73;34.37;100214.00;10238354;29;20066;-80
2024/04/07 13:56:13;;;;;;;2.78;0.57;;;;;;;22.73;35.23;100209.38;10219347;28;20503;-79
2024/04/07 14:01:14;;;;;;;0.77;0.45;;;;;;;23.11;34.21;100197.84;10216394;28;20051;-79
2024/04/07 14:06:17;;;;;;;1.00;0.60;;;;;;;22.98;34.08;100201.41;10233919;28;20063;-79
2024/04/07 14:11:18;;;;;;;1.60;0.57;;;;;;;23.28;32.78;100227.56;10233257;29;20039;-79
2024/04/07 14:16:18;;;;;;;1.15;0.43;;;;;;;22.70;34.20;100225.38;10221195;28;20043;-77
2024/04/07 14:21:19;;;;;;;1.73;0.47;;;;;;;23.19;33.27;100219.53;10234191;28;20052;-79
2024/04/07 14:26:20;;;;;;;2.33;0.60;;;;;;;23.33;32.73;100211.31;10230864;28;20191;-79
2024/04/07 14:31:21;;;;;;;2.20;0.60;;;;;;;23.48;33.95;100203.72;10233420;28;20055;-79
2024/04/07 14:36:21;;;;;;;1.20;0.52;;;;;;;22.72;34.93;100206.88;10248827;28;20045;-79
2024/04/07 14:41:22;;;;;;;0.98;0.52;;;;;;;22.27;35.61;100192.81;10243974;29;20124;-78
2024/04/07 14:46:23;;;;;;;3.53;0.55;;;;;;;22.03;36.47;100189.59;10237587;28;20503;-80
2024/04/07 14:51:24;;;;;;;4.45;0.77;;;;;;;21.67;37.21;100192.56;10220375;28;20073;-80
2024/04/07 14:56:24;;;;;;;2.22;0.68;;;;;;;21.92;37.25;100182.00;10213034;29;20035;-79
2024/04/07 15:01:25;;;;;;;1.85;1.02;;;;;;;22.00;37.64;100173.59;10217947;29;20067;-79
2024/04/07 15:06:26;;;;;;;1.95;0.50;;;;;;;22.15;37.43;100162.50;10203456;29;20040;-80
2024/04/07 15:11:27;;;;;;;2.80;0.50;;;;;;;21.88;37.87;100156.91;10197135;29;20056;-81
2024/04/07 15:16:28;;;;;;;3.55;0.75;;;;;;;21.64;38.23;100141.03;10207618;29;20036;-79
2024/04/07 15:21:29;;;;;;;1.60;0.77;;;;;;;21.79;38.07;100139.03;10205656;29;20059;-80
2024/04/07 15:26:29;;;;;;;3.20;0.60;;;;;;;22.09;37.60;100141.44;10208227;28;20723;-79
2024/04/07 15:31:31;;;;;;;1.73;0.77;;;;;;;21.97;37.16;100151.28;10223555;29;20477;-79
2024/04/07 15:36:32;;;;;;;2.13;0.60;;;;;;;22.10;37.14;100126.72;10222475;28;20039;-79
2024/04/07 15:41:33;;;;;;;3.72;1.02;;;;;;;20.93;38.66;100157.56;10229464;29;20039;-79
2024/04/07 15:46:33;;;;;;;2.22;0.80;;;;;;;21.41;37.79;100135.84;10218900;29;20075;-79
2024/04/07 15:51:36;;;;;;;4.18;1.40;;;;;;;21.83;37.65;100142.19;10235423;28;20035;-79
2024/04/07 15:56:36;;;;;;;1.35;0.65;;;;;;;21.94;37.35;100143.47;10229375;28;20043;-79
2024/04/07 16:01:37;;;;;;;2.55;1.15;;;;;;;21.83;38.36;100123.03;10207413;28;20063;-80
2024/04/07 16:06:39;;;;;;;3.25;0.90;;;;;;;22.05;37.78;100123.75;10238914;29;20126;-79
2024/04/07 16:11:40;;;;;;;2.08;0.80;;;;;;;21.80;37.26;100097.00;10241724;28;20046;-79
2024/04/07 16:16:40;;;;;;;1.83;0.60;;;;;;;21.42;38.60;100104.78;10226681;29;20422;-78
2024/04/07 16:21:41;;;;;;;1.50;0.77;;;;;;;21.42;38.29;100115.72;10237119;28;20043;-80
2024/04/07 16:26:46;;;;;;;5.32;0.90;;;;;;;21.63;37.69;100125.66;10239908;29;20039;-80
2024/04/07 16:31:47;;;;;;;3.10;0.75;;;;;;;20.96;38.63;100117.06;10225780;28;20090;-79
2024/04/07 16:36:47;;;;;;;1.52;1.20;;;;;;;21.28;38.18;100106.56;10235698;28;20047;-79
2024/04/07 16:41:49;;;;;;;2.90;0.85;;;;;;;21.45;38.55;100099.75;10223332;28;20043;-79
2024/04/07 16:46:49;;;;;;;1.48;0.77;;;;;;;21.49;38.32;100111.09;10238111;28;20043;-81
2024/04/07 16:51:50;;;;;;;0.68;0.60;;;;;;;21.43;38.79;100111.91;10233272;28;20103;-80
2024/04/07 16:56:53;;;;;;;4.45;0.90;;;;;;;21.45;39.21;100107.09;10223546;28;20035;-80
2024/04/07 17:01:53;;;;;;;3.08;1.30;;;;;;;21.37;38.91;100097.19;10207017;28;20522;-80
2024/04/07 17:06:54;;;;;;;6.47;1.25;;;;;;;21.24;39.31;100102.56;10230879;28;20067;-80
2024/04/07 17:11:55;;;;;;;1.50;1.00;;;;;;;21.10;39.16;100103.53;10226089;28;20047;-80
2024/04/07 17:16:58;;;;;;;2.55;0.90;;;;;;;21.02;39.34;100099.03;10219657;28;20035;-77
2024/04/07 17:21:58;;;;;;;2.17;1.20;;;;;;;20.96;39.44;100099.84;10218170;28;20557;-79
2024/04/07 17:26:59;;;;;;;2.92;0.88;;;;;;;20.94;39.79;100105.50;10224573;29;20047;-80
2024/04/07 17:32:00;;;;;;;1.90;0.77;;;;;;;20.93;39.76;100087.44;10213643;28;20234;-80
2024/04/07 17:37:01;;;;;;;5.20;1.13;;;;;;;20.99;40.68;100077.59;10243766;28;20047;-79
2024/04/07 17:42:02;;;;;;;5.47;1.42;;;;;;;21.00;41.14;100071.09;10217878;28;20055;-79
2024/04/07 17:47:03;;;;;;;2.55;1.13;;;;;;;20.97;40.45;100061.41;10234372;28;20047;-79
2024/04/07 17:52:04;;;;;;;3.35;0.95;;;;;;;20.94;41.47;100059.06;10225457;28;20515;-79
2024/04/07 17:57:05;;;;;;;3.00;1.10;;;;;;;20.77;42.75;100071.34;10213288;29;20110;-79
2024/04/07 18:02:06;;;;;;;3.90;1.13;;;;;;;20.58;43.34;100063.88;10201403;28;20682;-79
2024/04/07 18:07:07;;;;;;;2.17;1.10;;;;;;;20.51;42.88;100069.25;10228544;28;20039;-79
2024/04/07 18:12:07;;;;;;;1.90;1.10;;;;;;;20.44;43.16;100077.41;10217692;28;20074;-79
2024/04/07 18:17:09;;;;;;;1.83;1.10;;;;;;;20.37;43.85;100070.19;10212006;28;20629;-80
2024/04/07 18:22:09;;;;;;;2.97;1.67;;;;;;;20.32;43.65;100073.50;10222401;28;20049;-80
2024/04/07 18:27:10;;;;;;;1.98;0.80;;;;;;;20.23;43.60;100058.28;10220190;28;20130;-79
2024/04/07 18:32:11;;;;;;;7.32;1.48;;;;;;;20.17;43.70;100056.34;10231537;28;20426;-79
2024/04/07 18:37:12;;;;;;;2.25;0.90;;;;;;;20.14;43.71;100057.56;10206446;28;20075;-79
2024/04/07 18:42:12;;;;;;;1.83;1.05;;;;;;;20.15;42.65;100055.69;10222171;28;20047;-79
2024/04/07 18:47:13;;;;;;;3.38;1.35;;;;;;;20.07;44.03;100051.19;10217189;28;20054;-80
2024/04/07 18:52:14;;;;;;;1.42;1.00;;;;;;;19.96;44.33;100060.72;10217264;28;20047;-81
2024/04/07 18:57:15;;;;;;;2.40;1.88;;;;;;;19.96;44.85;100068.06;10216151;28;20090;-79
2024/04/07 19:02:20;;;;;;;3.85;1.65;;;;;;;19.92;44.71;100073.06;10213959;29;20043;-79
2024/04/07 19:07:21;;;;;;;5.35;2.50;;;;;;;19.90;45.11;100077.88;10213868;28;20036;-80
2024/04/07 19:12:22;;;;;;;3.65;2.38;;;;;;;19.86;44.79;100080.16;10219034;28;20039;-80
2024/04/07 19:17:22;;;;;;;4.88;2.50;;;;;;;19.89;45.65;100082.47;10211622;28;20043;-80
2024/04/07 19:22:24;;;;;;;4.93;3.47;;;;;;;19.82;45.61;100081.56;10238741;28;20449;-78
2024/04/07 19:27:24;;;;;;;6.03;2.60;;;;;;;19.70;45.57;100069.47;10225106;29;20043;-81
2024/04/07 19:32:25;;;;;;;9.13;3.55;;;;;;;19.58;44.50;100074.59;10221729;28;20043;-79
2024/04/07 19:37:26;;;;;;;12.77;6.32;;;;;;;19.55;44.78;100088.53;10226185;29;20499;-78
2024/04/07 19:42:27;;;;;;;6.70;5.00;;;;;;;19.55;44.68;100082.25;10211510;29;20067;-79
2024/04/07 19:47:28;;;;;;;7.68;5.05;;;;;;;19.60;44.90;100082.56;10231024;29;20126;-79
2024/04/07 19:52:29;;;;;;;5.88;3.08;;;;;;;19.48;46.10;100065.81;10233979;29;20035;-78
2024/04/07 19:57:30;;;;;;;5.63;3.10;;;;;;;19.51;45.93;100053.72;10214005;29;20129;-79
2024/04/07 20:02:30;;;;;;;3.78;2.88;;;;;;;19.51;46.05;100050.97;10204767;28;20039;-78
2024/04/07 20:07:31;;;;;;;6.68;2.67;;;;;;;19.44;46.03;100051.75;10198150;28;20507;-80
2024/04/07 20:12:33;;;;;;;4.85;3.30;;;;;;;19.41;45.92;100043.09;10199474;29;20086;-80
2024/04/07 20:17:34;;;;;;;2.80;2.50;;;;;;;19.28;47.27;100034.75;10203324;29;20059;-79
2024/04/07 20:22:36;;;;;;;7.40;3.03;;;;;;;19.23;47.78;100046.22;10241304;28;20291;-77
2024/04/07 20:27:37;;;;;;;5.55;4.47;;;;;;;19.20;47.97;100050.19;10202038;29;20388;-79
2024/04/07 20:32:40;;;;;;;8.93;4.78;;;;;;;19.15;47.50;100039.00;10217654;28;20059;-79
2024/04/07 20:37:42;;;;;;;5.07;2.97;;;;;;;18.91;47.43;100033.84;10218184;28;20035;-80
2024/04/07 20:42:43;;;;;;;3.88;2.92;;;;;;;18.75;51.75;100034.84;10228753;29;20507;-79
2024/04/07 20:47:44;;;;;;;9.82;3.17;;;;;;;18.70;54.26;100020.94;10207678;29;20036;-79
2024/04/07 20:52:45;;;;;;;5.00;2.38;;;;;;;17.51;60.28;100049.56;10213018;29;20044;-79
2024/04/07 20:57:45;;;;;;;2.72;2.05;;;;;;;17.10;63.73;100069.53;10217378;29;20047;-79
2024/04/07 21:02:46;;;;;;;4.35;1.90;;;;;;;16.77;69.09;100076.91;10236975;28;20066;-80
2024/04/07 21:07:48;;;;;;;4.35;2.20;;;;;;;16.22;79.23;100096.56;10210598;28;20051;-79
2024/04/07 21:12:48;;;;;;;4.30;2.17;;;;;;;15.62;89.85;100103.88;10231182;29;20059;-80
2024/04/07 21:17:49;;;;;;;6.50;2.30;;;;;;;15.63;99.96;100083.94;10213340;28;20063;-78
2024/04/07 21:22:50;;;;;;;5.22;1.92;;;;;;;15.67;100.00;100058.19;10202418;28;20048;-78
2024/04/07 21:27:51;;;;;;;4.38;1.65;;;;;;;15.42;100.00;100057.28;10220727;29;20068;-79
2024/04/07 21:32:51;;;;;;;4.25;1.90;;;;;;;14.98;100.00;100043.88;10212146;29;20051;-79
2024/04/07 21:37:52;;;;;;;7.25;1.80;;;;;;;14.88;100.00;100039.59;10226448;29;20521;-79
2024/04/07 21:42:53;;;;;;;5.45;1.88;;;;;;;14.83;100.00;100051.72;10229352;29;20055;-79
2024/04/07 21:47:54;;;;;;;4.57;1.58;;;;;;;14.76;100.00;100044.44;10237652;28;20040;-79
2024/04/07 21:52:55;;;;;;;5.22;1.98;;;;;;;14.77;100.00;100036.16;10213942;28;20047;-78
2024/04/07 21:57:56;;;;;;;5.88;1.63;;;;;;;14.86;100.00;100030.78;10228772;28;20046;-79
2024/04/07 22:02:56;;;;;;;5.68;1.80;;;;;;;14.98;100.00;100024.94;10214148;29;20099;-78
2024/04/07 22:07:57;;;;;;;4.80;1.80;;;;;;;15.10;100.00;100016.53;10219004;29;20123;-79
2024/04/07 22:12:59;;;;;;;4.72;2.10;;;;;;;15.16;100.00;100013.19;10210337;29;20052;-77
2024/04/07 22:17:59;;;;;;;5.07;1.70;;;;;;;15.15;100.00;100001.50;10238798;28;20047;-77
2024/04/07 22:23:00;;;;;;;7.38;2.03;;;;;;;15.13;100.00;100022.47;10225822;29;20059;-78
2024/04/07 22:28:01;;;;;;;6.15;1.90;;;;;;;15.17;100.00;100040.06;10231324;28;20051;-79
2024/04/07 22:33:02;;;;;;;8.85;2.08;;;;;;;15.05;100.00;100063.00;10224745;28;20062;-79
2024/04/07 22:38:03;;;;;;;4.82;2.53;;;;;;;14.76;100.00;100061.50;10232901;29;20055;-79
2024/04/07 22:43:04;;;;;;;4.53;2.28;;;;;;;14.62;100.00;100066.63;10217846;29;20047;-79
2024/04/07 22:48:05;;;;;;;4.65;2.17;;;;;;;14.62;100.00;100070.19;10238086;29;20039;-79
2024/04/07 22:53:05;;;;;;;8.30;2.92;;;;;;;14.65;100.00;100052.81;10220834;28;20067;-78
2024/04/07 22:58:06;;;;;;;6.63;2.38;;;;;;;14.52;100.00;100058.63;10215945;29;20062;-79
2024/04/07 23:03:07;;;;;;;6.95;2.38;;;;;;;14.42;100.00;100063.28;10211177;29;20083;-78
2024/04/07 23:08:08;;;;;;;9.27;2.92;;;;;;;14.50;100.00;100055.22;10217001;29;20055;-78
2024/04/07 23:13:08;;;;;;;5.38;2.47;;;;;;;14.47;100.00;100069.91;10202553;28;20518;-79